sensor_id;sensor_type;location;lat;lon;timestamp;pressure;altitude;pressure_sealevel;temperature;humidity
54306;BME280;66145;45.188;5.712;2023-02-18T00:00:39;100630.00;;;18.77;40.35
54306;BME280;66145;45.188;5.712;2023-02-18T00:03:04;100645.81;;;18.91;40.14
54306;BME280;66145;45.188;5.712;2023-02-18T00:05:30;100625.06;;;18.79;40.13
54306;BME280;66145;45.188;5.712;2023-02-18T00:07:55;100648.59;;;18.96;39.92
54306;BME280;66145;45.188;5.712;2023-02-18T00:10:20;100626.94;;;18.89;40.07
54306;BME280;66145;45.188;5.712;2023-02-18T00:12:46;100640.91;;;18.98;39.86
54306;BME280;66145;45.188;5.712;2023-02-18T00:15:11;100621.44;;;18.89;40.05
54306;BME280;66145;45.188;5.712;2023-02-18T00:17:37;100601.47;;;18.78;40.06
54306;BME280;66145;45.188;5.712;2023-02-18T00:20:04;100636.75;;;19.00;40.04
54306;BME280;66145;45.188;5.712;2023-02-18T00:22:30;100602.28;;;18.79;40.08
54306;BME280;66145;45.188;5.712;2023-02-18T00:24:55;100629.38;;;19.01;39.99
54306;BME280;66145;45.188;5.712;2023-02-18T00:27:20;100619.81;;;18.88;40.04
54306;BME280;66145;45.188;5.712;2023-02-18T00:29:45;100637.63;;;18.96;40.11
54306;BME280;66145;45.188;5.712;2023-02-18T00:32:11;100626.38;;;18.92;40.03
54306;BME280;66145;45.188;5.712;2023-02-18T00:34:36;100633.47;;;18.93;40.37
54306;BME280;66145;45.188;5.712;2023-02-18T00:37:02;100615.75;;;18.75;40.20
54306;BME280;66145;45.188;5.712;2023-02-18T00:39:27;100627.97;;;18.93;40.15
54306;BME280;66145;45.188;5.712;2023-02-18T00:41:52;100560.53;;;18.42;40.32
54306;BME280;66145;45.188;5.712;2023-02-18T00:44:18;100628.56;;;18.90;40.24
54306;BME280;66145;45.188;5.712;2023-02-18T00:46:43;100600.69;;;18.73;40.00
54306;BME280;66145;45.188;5.712;2023-02-18T00:49:08;100632.94;;;18.91;40.21
54306;BME280;66145;45.188;5.712;2023-02-18T00:51:35;100638.41;;;18.96;40.10
54306;BME280;66145;45.188;5.712;2023-02-18T00:54:00;100641.16;;;18.96;40.07
54306;BME280;66145;45.188;5.712;2023-02-18T00:56:26;100642.00;;;18.97;40.09
54306;BME280;66145;45.188;5.712;2023-02-18T00:58:51;100643.91;;;18.96;40.12
54306;BME280;66145;45.188;5.712;2023-02-18T01:01:17;100634.84;;;18.91;40.18
54306;BME280;66145;45.188;5.712;2023-02-18T01:03:43;100637.59;;;18.91;40.03
54306;BME280;66145;45.188;5.712;2023-02-18T01:06:10;100594.13;;;18.63;40.34
54306;BME280;66145;45.188;5.712;2023-02-18T01:08:36;100636.50;;;18.92;40.01
54306;BME280;66145;45.188;5.712;2023-02-18T01:11:02;100628.81;;;18.94;39.87
54306;BME280;66145;45.188;5.712;2023-02-18T01:13:28;100623.59;;;19.03;40.03
54306;BME280;66145;45.188;5.712;2023-02-18T01:15:53;100565.88;;;18.73;39.84
54306;BME280;66145;45.188;5.712;2023-02-18T01:18:19;100623.19;;;19.20;39.83
54306;BME280;66145;45.188;5.712;2023-02-18T01:20:45;100544.72;;;18.79;40.01
54306;BME280;66145;45.188;5.712;2023-02-18T01:23:11;100610.56;;;19.24;40.09
54306;BME280;66145;45.188;5.712;2023-02-18T01:25:37;100612.22;;;19.25;39.84
54306;BME280;66145;45.188;5.712;2023-02-18T01:28:04;100610.53;;;19.29;39.78
54306;BME280;66145;45.188;5.712;2023-02-18T01:30:30;100610.25;;;19.30;40.03
54306;BME280;66145;45.188;5.712;2023-02-18T01:32:57;100607.25;;;19.27;40.21
54306;BME280;66145;45.188;5.712;2023-02-18T01:35:22;100541.41;;;18.87;40.21
54306;BME280;66145;45.188;5.712;2023-02-18T01:37:48;100571.97;;;19.10;40.21
54306;BME280;66145;45.188;5.712;2023-02-18T01:40:18;100612.44;;;19.34;40.28
54306;BME280;66145;45.188;5.712;2023-02-18T01:42:44;100596.06;;;19.23;40.50
54306;BME280;66145;45.188;5.712;2023-02-18T01:50:33;100563.75;;;19.10;40.24
54306;BME280;66145;45.188;5.712;2023-02-18T01:53:00;100598.16;;;19.32;40.24
54306;BME280;66145;45.188;5.712;2023-02-18T01:55:26;100586.13;;;19.27;40.39
54306;BME280;66145;45.188;5.712;2023-02-18T01:57:52;100585.59;;;19.25;39.88
54306;BME280;66145;45.188;5.712;2023-02-18T02:00:19;100592.72;;;19.26;40.25
54306;BME280;66145;45.188;5.712;2023-02-18T02:02:50;100600.09;;;19.31;40.39
54306;BME280;66145;45.188;5.712;2023-02-18T02:05:17;100593.81;;;19.25;40.47
54306;BME280;66145;45.188;5.712;2023-02-18T02:07:43;100570.56;;;19.18;40.37
54306;BME280;66145;45.188;5.712;2023-02-18T02:10:11;100609.91;;;19.37;40.37
54306;BME280;66145;45.188;5.712;2023-02-18T02:15:37;100565.16;;;19.07;40.30
54306;BME280;66145;45.188;5.712;2023-02-18T02:27:28;100598.41;;;19.35;40.57
54306;BME280;66145;45.188;5.712;2023-02-18T02:35:43;100593.22;;;19.34;40.49
54306;BME280;66145;45.188;5.712;2023-02-18T02:38:38;100594.28;;;19.38;40.66
54306;BME280;66145;45.188;5.712;2023-02-18T02:46:35;100586.13;;;19.27;40.26
54306;BME280;66145;45.188;5.712;2023-02-18T02:51:40;100562.59;;;19.21;40.57
54306;BME280;66145;45.188;5.712;2023-02-18T02:54:09;100537.50;;;19.04;40.50
54306;BME280;66145;45.188;5.712;2023-02-18T02:56:35;100577.09;;;19.27;40.76
54306;BME280;66145;45.188;5.712;2023-02-18T02:59:03;100580.38;;;19.29;40.68
54306;BME280;66145;45.188;5.712;2023-02-18T03:11:58;100509.84;;;18.95;40.29
54306;BME280;66145;45.188;5.712;2023-02-18T03:14:40;100556.25;;;19.26;40.27
54306;BME280;66145;45.188;5.712;2023-02-18T03:17:21;100592.03;;;19.45;40.43
54306;BME280;66145;45.188;5.712;2023-02-18T03:19:59;100473.47;;;18.79;40.55
54306;BME280;66145;45.188;5.712;2023-02-18T03:22:33;100563.91;;;19.29;40.53
54306;BME280;66145;45.188;5.712;2023-02-18T03:25:02;100517.50;;;18.98;40.63
54306;BME280;66145;45.188;5.712;2023-02-18T03:27:52;100586.53;;;19.45;40.74
54306;BME280;66145;45.188;5.712;2023-02-18T03:30:32;100551.28;;;19.28;40.76
54306;BME280;66145;45.188;5.712;2023-02-18T03:33:03;100568.50;;;19.39;40.67
54306;BME280;66145;45.188;5.712;2023-02-18T03:35:28;100557.88;;;19.27;40.95
54306;BME280;66145;45.188;5.712;2023-02-18T03:38:25;100569.53;;;19.43;40.97
54306;BME280;66145;45.188;5.712;2023-02-18T03:40:54;100585.19;;;19.42;40.58
54306;BME280;66145;45.188;5.712;2023-02-18T03:43:20;100541.75;;;19.20;41.07
54306;BME280;66145;45.188;5.712;2023-02-18T03:45:45;100573.38;;;19.42;41.01
54306;BME280;66145;45.188;5.712;2023-02-18T03:48:10;100541.44;;;19.27;40.97
54306;BME280;66145;45.188;5.712;2023-02-18T03:50:36;100572.06;;;19.39;40.82
54306;BME280;66145;45.188;5.712;2023-02-18T03:53:01;100543.34;;;19.26;40.85
54306;BME280;66145;45.188;5.712;2023-02-18T03:55:27;100561.38;;;19.38;40.90
54306;BME280;66145;45.188;5.712;2023-02-18T03:57:52;100570.63;;;19.47;40.89
54306;BME280;66145;45.188;5.712;2023-02-18T04:00:18;100543.88;;;19.28;40.88
54306;BME280;66145;45.188;5.712;2023-02-18T04:02:44;100510.88;;;19.04;41.16
54306;BME280;66145;45.188;5.712;2023-02-18T04:05:10;100568.41;;;19.49;40.90
54306;BME280;66145;45.188;5.712;2023-02-18T04:07:35;100548.53;;;19.33;41.00
54306;BME280;66145;45.188;5.712;2023-02-18T04:10:01;100583.19;;;19.53;41.06
54306;BME280;66145;45.188;5.712;2023-02-18T04:12:27;100587.03;;;19.52;40.98
54306;BME280;66145;45.188;5.712;2023-02-18T04:14:52;100580.44;;;19.53;40.99
54306;BME280;66145;45.188;5.712;2023-02-18T04:17:18;100548.78;;;19.32;40.97
54306;BME280;66145;45.188;5.712;2023-02-18T04:19:43;100568.41;;;19.49;41.06
54306;BME280;66145;45.188;5.712;2023-02-18T04:22:08;100580.19;;;19.50;41.18
54306;BME280;66145;45.188;5.712;2023-02-18T04:24:34;100577.44;;;19.50;41.00
54306;BME280;66145;45.188;5.712;2023-02-18T04:26:59;100543.94;;;19.23;41.02
54306;BME280;66145;45.188;5.712;2023-02-18T04:29:24;100573.13;;;19.43;41.00
54306;BME280;66145;45.188;5.712;2023-02-18T04:31:50;100571.19;;;19.44;41.11
54306;BME280;66145;45.188;5.712;2023-02-18T04:34:15;100491.75;;;18.89;40.99
54306;BME280;66145;45.188;5.712;2023-02-18T04:36:40;100585.41;;;19.51;41.19
54306;BME280;66145;45.188;5.712;2023-02-18T04:39:06;100585.97;;;19.48;40.95
54306;BME280;66145;45.188;5.712;2023-02-18T04:41:31;100546.59;;;19.34;41.32
54306;BME280;66145;45.188;5.712;2023-02-18T04:43:56;100579.09;;;19.51;41.26
54306;BME280;66145;45.188;5.712;2023-02-18T04:46:23;100581.78;;;19.56;41.39
54306;BME280;66145;45.188;5.712;2023-02-18T04:48:49;100576.31;;;19.56;41.30
54306;BME280;66145;45.188;5.712;2023-02-18T04:51:14;100570.56;;;19.52;41.75
54306;BME280;66145;45.188;5.712;2023-02-18T04:53:39;100582.09;;;19.54;41.31
54306;BME280;66145;45.188;5.712;2023-02-18T04:56:05;100572.22;;;19.53;41.53
54306;BME280;66145;45.188;5.712;2023-02-18T04:58:30;100582.91;;;19.55;41.45
54306;BME280;66145;45.188;5.712;2023-02-18T05:01:00;100550.72;;;19.31;41.39
54306;BME280;66145;45.188;5.712;2023-02-18T05:03:26;100593.06;;;19.54;41.27
54306;BME280;66145;45.188;5.712;2023-02-18T05:05:52;100594.19;;;19.53;41.69
54306;BME280;66145;45.188;5.712;2023-02-18T05:08:17;100496.16;;;18.95;41.63
54306;BME280;66145;45.188;5.712;2023-02-18T05:10:43;100562.19;;;19.38;41.42
54306;BME280;66145;45.188;5.712;2023-02-18T05:13:09;100594.94;;;19.59;41.46
54306;BME280;66145;45.188;5.712;2023-02-18T05:15:34;100552.59;;;19.36;41.57
54306;BME280;66145;45.188;5.712;2023-02-18T05:18:00;100580.44;;;19.53;41.52
54306;BME280;66145;45.188;5.712;2023-02-18T05:20:25;100590.25;;;19.59;41.49
54306;BME280;66145;45.188;5.712;2023-02-18T05:22:50;100493.63;;;18.93;41.96
54306;BME280;66145;45.188;5.712;2023-02-18T05:25:16;100582.69;;;19.46;41.16
54306;BME280;66145;45.188;5.712;2023-02-18T05:27:42;100550.66;;;19.36;40.97
54306;BME280;66145;45.188;5.712;2023-02-18T05:30:07;100549.03;;;19.35;40.86
54306;BME280;66145;45.188;5.712;2023-02-18T05:32:33;100569.28;;;19.44;40.85
54306;BME280;66145;45.188;5.712;2023-02-18T05:34:58;100569.81;;;19.47;40.92
54306;BME280;66145;45.188;5.712;2023-02-18T05:37:24;100542.50;;;19.31;40.75
54306;BME280;66145;45.188;5.712;2023-02-18T05:39:49;100570.34;;;19.49;40.70
54306;BME280;66145;45.188;5.712;2023-02-18T05:42:14;100568.44;;;19.44;40.72
54306;BME280;66145;45.188;5.712;2023-02-18T05:44:40;100553.75;;;19.29;40.70
54306;BME280;66145;45.188;5.712;2023-02-18T05:47:08;100571.47;;;19.42;40.76
54306;BME280;66145;45.188;5.712;2023-02-18T05:49:35;100562.47;;;19.37;40.91
54306;BME280;66145;45.188;5.712;2023-02-18T05:52:01;100570.94;;;19.40;40.79
54306;BME280;66145;45.188;5.712;2023-02-18T05:54:27;100538.50;;;19.13;40.76
54306;BME280;66145;45.188;5.712;2023-02-18T05:56:52;100570.94;;;19.40;40.47
54306;BME280;66145;45.188;5.712;2023-02-18T05:59:18;100551.00;;;19.29;40.77
54306;BME280;66145;45.188;5.712;2023-02-18T06:01:44;100533.00;;;19.18;40.62
54306;BME280;66145;45.188;5.712;2023-02-18T06:04:10;100524.31;;;19.06;40.65
54306;BME280;66145;45.188;5.712;2023-02-18T06:06:35;100540.13;;;19.19;40.82
54306;BME280;66145;45.188;5.712;2023-02-18T06:09:02;100562.28;;;19.28;40.49
54306;BME280;66145;45.188;5.712;2023-02-18T06:11:28;100575.91;;;19.38;40.63
54306;BME280;66145;45.188;5.712;2023-02-18T06:13:53;100570.16;;;19.35;40.67
54306;BME280;66145;45.188;5.712;2023-02-18T06:16:19;100574.59;;;19.30;40.81
54306;BME280;66145;45.188;5.712;2023-02-18T06:18:44;100516.97;;;18.96;40.63
54306;BME280;66145;45.188;5.712;2023-02-18T06:21:09;100547.03;;;19.11;40.64
54306;BME280;66145;45.188;5.712;2023-02-18T06:23:35;100580.91;;;19.31;40.67
54306;BME280;66145;45.188;5.712;2023-02-18T06:26:00;100568.34;;;19.20;40.67
54306;BME280;66145;45.188;5.712;2023-02-18T06:28:25;100512.34;;;18.86;40.78
54306;BME280;66145;45.188;5.712;2023-02-18T06:30:51;100570.50;;;19.28;40.67
54306;BME280;66145;45.188;5.712;2023-02-18T06:33:16;100576.53;;;19.30;40.42
54306;BME280;66145;45.188;5.712;2023-02-18T06:35:50;100580.06;;;19.30;40.39
54306;BME280;66145;45.188;5.712;2023-02-18T06:38:16;100569.94;;;19.31;40.50
54306;BME280;66145;45.188;5.712;2023-02-18T06:40:41;100550.31;;;19.13;40.54
54306;BME280;66145;45.188;5.712;2023-02-18T06:43:07;100560.41;;;19.18;40.39
54306;BME280;66145;45.188;5.712;2023-02-18T06:45:32;100554.97;;;19.13;40.57
54306;BME280;66145;45.188;5.712;2023-02-18T06:47:57;100580.63;;;19.27;40.70
54306;BME280;66145;45.188;5.712;2023-02-18T06:50:23;100497.91;;;18.70;40.52
54306;BME280;66145;45.188;5.712;2023-02-18T06:52:48;100574.13;;;19.18;40.79
54306;BME280;66145;45.188;5.712;2023-02-18T06:55:13;100594.34;;;19.27;40.66
54306;BME280;66145;45.188;5.712;2023-02-18T06:57:39;100588.88;;;19.27;40.56
54306;BME280;66145;45.188;5.712;2023-02-18T07:00:05;100596.56;;;19.25;40.41
54306;BME280;66145;45.188;5.712;2023-02-18T07:02:30;100563.25;;;19.08;40.57
54306;BME280;66145;45.188;5.712;2023-02-18T07:04:55;100490.84;;;18.64;40.54
54306;BME280;66145;45.188;5.712;2023-02-18T07:07:21;100540.25;;;18.93;40.39
54306;BME280;66145;45.188;5.712;2023-02-18T07:09:46;100602.03;;;19.25;40.26
54306;BME280;66145;45.188;5.712;2023-02-18T07:12:12;100575.03;;;19.08;40.35
54306;BME280;66145;45.188;5.712;2023-02-18T07:14:37;100594.69;;;19.21;40.50
54306;BME280;66145;45.188;5.712;2023-02-18T07:17:02;100600.13;;;19.26;40.51
54306;BME280;66145;45.188;5.712;2023-02-18T07:19:28;100599.31;;;19.25;40.35
54306;BME280;66145;45.188;5.712;2023-02-18T07:21:53;100588.66;;;19.19;40.41
54306;BME280;66145;45.188;5.712;2023-02-18T07:24:21;100564.38;;;19.02;40.38
54306;BME280;66145;45.188;5.712;2023-02-18T07:26:47;100594.69;;;19.21;40.49
54306;BME280;66145;45.188;5.712;2023-02-18T07:29:12;100584.09;;;19.09;40.36
54306;BME280;66145;45.188;5.712;2023-02-18T07:31:38;100511.66;;;18.65;40.35
54306;BME280;66145;45.188;5.712;2023-02-18T07:34:03;100608.66;;;19.24;40.41
54306;BME280;66145;45.188;5.712;2023-02-18T07:36:28;100601.00;;;19.21;40.51
54306;BME280;66145;45.188;5.712;2023-02-18T07:38:54;100572.03;;;19.05;40.49
54306;BME280;66145;45.188;5.712;2023-02-18T07:41:21;100506.75;;;18.62;40.49
54306;BME280;66145;45.188;5.712;2023-02-18T07:43:47;100596.63;;;19.20;40.59
54306;BME280;66145;45.188;5.712;2023-02-18T07:46:13;100605.63;;;19.26;40.37
54306;BME280;66145;45.188;5.712;2023-02-18T07:48:38;100578.84;;;19.12;40.40
54306;BME280;66145;45.188;5.712;2023-02-18T07:51:08;100608.91;;;19.28;40.49
54306;BME280;66145;45.188;5.712;2023-02-18T07:53:34;100584.88;;;19.09;40.27
54306;BME280;66145;45.188;5.712;2023-02-18T07:56:00;100538.69;;;18.82;40.60
54306;BME280;66145;45.188;5.712;2023-02-18T07:58:32;100592.78;;;19.21;40.32
54306;BME280;66145;45.188;5.712;2023-02-18T08:00:58;100605.09;;;19.19;41.01
54306;BME280;66145;45.188;5.712;2023-02-18T08:03:29;100606.03;;;19.09;40.32
54306;BME280;66145;45.188;5.712;2023-02-18T08:05:55;100602.13;;;19.15;40.35
54306;BME280;66145;45.188;5.712;2023-02-18T08:08:24;100608.13;;;19.22;40.43
54306;BME280;66145;45.188;5.712;2023-02-18T08:10:50;100585.91;;;19.19;40.15
54306;BME280;66145;45.188;5.712;2023-02-18T08:13:16;100589.81;;;19.12;40.25
54306;BME280;66145;45.188;5.712;2023-02-18T08:15:42;100595.84;;;19.14;40.15
54306;BME280;66145;45.188;5.712;2023-02-18T08:18:14;100589.50;;;19.14;40.31
54306;BME280;66145;45.188;5.712;2023-02-18T08:20:40;100600.44;;;19.24;39.88
54306;BME280;66145;45.188;5.712;2023-02-18T08:23:06;100594.97;;;19.19;40.31
54306;BME280;66145;45.188;5.712;2023-02-18T08:25:32;100598.50;;;19.25;39.98
54306;BME280;66145;45.188;5.712;2023-02-18T08:27:58;100605.31;;;19.27;40.17
54306;BME280;66145;45.188;5.712;2023-02-18T08:30:24;100603.69;;;19.26;40.12
54306;BME280;66145;45.188;5.712;2023-02-18T08:32:50;100548.78;;;18.92;40.22
54306;BME280;66145;45.188;5.712;2023-02-18T08:35:15;100566.81;;;19.03;40.31
54306;BME280;66145;45.188;5.712;2023-02-18T08:37:41;100596.63;;;19.20;40.16
54306;BME280;66145;45.188;5.712;2023-02-18T08:40:06;100598.56;;;19.14;40.19
54306;BME280;66145;45.188;5.712;2023-02-18T08:42:32;100553.47;;;18.86;40.25
54306;BME280;66145;45.188;5.712;2023-02-18T08:44:57;100613.34;;;19.19;40.21
54306;BME280;66145;45.188;5.712;2023-02-18T08:47:23;100563.88;;;18.89;40.17
54306;BME280;66145;45.188;5.712;2023-02-18T08:49:48;100613.59;;;19.22;39.99
54306;BME280;66145;45.188;5.712;2023-02-18T08:52:14;100613.59;;;19.22;40.04
54306;BME280;66145;45.188;5.712;2023-02-18T08:54:42;100583.00;;;19.05;40.06
54306;BME280;66145;45.188;5.712;2023-02-18T08:57:07;100581.06;;;19.05;40.03
54306;BME280;66145;45.188;5.712;2023-02-18T08:59:33;100575.66;;;18.95;40.75
54306;BME280;66145;45.188;5.712;2023-02-18T09:01:58;100546.22;;;18.55;40.54
54306;BME280;66145;45.188;5.712;2023-02-18T09:04:23;100574.09;;;18.73;40.72
54306;BME280;66145;45.188;5.712;2023-02-18T09:06:49;100566.19;;;18.61;40.83
54306;BME280;66145;45.188;5.712;2023-02-18T09:09:16;100577.44;;;18.60;40.70
54306;BME280;66145;45.188;5.712;2023-02-18T09:11:42;100571.41;;;18.63;40.79
54306;BME280;66145;45.188;5.712;2023-02-18T09:14:08;100589.97;;;18.76;40.32
54306;BME280;66145;45.188;5.712;2023-02-18T09:16:33;100586.91;;;18.83;40.31
54306;BME280;66145;45.188;5.712;2023-02-18T09:18:59;100597.31;;;18.91;40.45
54306;BME280;66145;45.188;5.712;2023-02-18T09:21:25;100580.56;;;18.93;40.23
54306;BME280;66145;45.188;5.712;2023-02-18T09:23:51;100515.81;;;18.57;40.01
54306;BME280;66145;45.188;5.712;2023-02-18T09:26:18;100507.63;;;18.47;40.23
54306;BME280;66145;45.188;5.712;2023-02-18T09:28:47;100582.22;;;18.99;40.21
54306;BME280;66145;45.188;5.712;2023-02-18T09:31:15;100516.91;;;18.56;40.33
54306;BME280;66145;45.188;5.712;2023-02-18T09:33:44;100575.91;;;18.98;39.87
54306;BME280;66145;45.188;5.712;2023-02-18T09:36:10;100562.00;;;18.79;39.90
54306;BME280;66145;45.188;5.712;2023-02-18T09:38:35;100563.09;;;18.83;40.21
54306;BME280;66145;45.188;5.712;2023-02-18T09:41:04;100534.66;;;18.69;40.18
54306;BME280;66145;45.188;5.712;2023-02-18T09:43:40;100578.63;;;18.93;40.29
54306;BME280;66145;45.188;5.712;2023-02-18T09:46:29;100571.25;;;18.89;40.12
54306;BME280;66145;45.188;5.712;2023-02-18T09:48:57;100575.88;;;18.93;40.08
54306;BME280;66145;45.188;5.712;2023-02-18T09:51:25;100564.19;;;18.82;39.95
54306;BME280;66145;45.188;5.712;2023-02-18T09:53:51;100578.38;;;18.90;40.11
54306;BME280;66145;45.188;5.712;2023-02-18T09:56:21;100536.88;;;18.67;39.68
54306;BME280;66145;45.188;5.712;2023-02-18T09:58:48;100574.84;;;18.89;39.66
54306;BME280;66145;45.188;5.712;2023-02-18T10:01:21;100569.63;;;18.88;39.49
54306;BME280;66145;45.188;5.712;2023-02-18T10:03:49;100532.72;;;18.69;39.87
54306;BME280;66145;45.188;5.712;2023-02-18T10:06:20;100549.63;;;18.87;39.73
54306;BME280;66145;45.188;5.712;2023-02-18T10:08:48;100493.91;;;18.52;39.83
54306;BME280;66145;45.188;5.712;2023-02-18T10:11:28;100558.63;;;18.93;39.77
54306;BME280;66145;45.188;5.712;2023-02-18T10:13:55;100542.47;;;18.91;40.04
54306;BME280;66145;45.188;5.712;2023-02-18T10:16:22;100546.31;;;18.95;39.95
54306;BME280;66145;45.188;5.712;2023-02-18T10:18:50;100523.06;;;18.82;40.15
54306;BME280;66145;45.188;5.712;2023-02-18T10:21:29;100546.03;;;18.97;40.07
54306;BME280;66145;45.188;5.712;2023-02-18T10:24:22;100512.69;;;18.74;39.78
54306;BME280;66145;45.188;5.712;2023-02-18T10:26:50;100536.19;;;18.85;39.72
54306;BME280;66145;45.188;5.712;2023-02-18T10:29:18;100529.91;;;18.85;40.10
54306;BME280;66145;45.188;5.712;2023-02-18T10:32:34;100538.13;;;18.85;40.09
54306;BME280;66145;45.188;5.712;2023-02-18T10:34:42;100500.97;;;18.63;39.92
54306;BME280;66145;45.188;5.712;2023-02-18T10:37:33;100532.94;;;18.83;40.50
54306;BME280;66145;45.188;5.712;2023-02-18T10:45:42;100527.66;;;18.92;39.43
54306;BME280;66145;45.188;5.712;2023-02-18T10:51:25;100524.63;;;18.99;39.94
54306;BME280;66145;45.188;5.712;2023-02-18T10:53:53;100495.66;;;18.82;39.82
54306;BME280;66145;45.188;5.712;2023-02-18T10:59:09;100489.66;;;18.75;39.38
54306;BME280;66145;45.188;5.712;2023-02-18T11:01:35;100519.97;;;18.94;39.92
54306;BME280;66145;45.188;5.712;2023-02-18T11:04:10;100443.59;;;18.32;39.83
54306;BME280;66145;45.188;5.712;2023-02-18T11:06:45;100470.56;;;18.65;40.13
54306;BME280;66145;45.188;5.712;2023-02-18T11:09:39;100506.88;;;18.86;39.83
54306;BME280;66145;45.188;5.712;2023-02-18T11:13:24;100495.56;;;18.93;40.26
54306;BME280;66145;45.188;5.712;2023-02-18T11:15:22;100487.63;;;18.96;39.85
54306;BME280;66145;45.188;5.712;2023-02-18T11:17:53;100477.50;;;18.92;40.10
54306;BME280;66145;45.188;5.712;2023-02-18T11:20:32;100487.09;;;18.94;39.90
54306;BME280;66145;45.188;5.712;2023-02-18T11:23:15;100444.72;;;18.71;39.94
54306;BME280;66145;45.188;5.712;2023-02-18T11:25:53;100447.44;;;18.76;39.88
54306;BME280;66145;45.188;5.712;2023-02-18T11:30:49;100461.03;;;18.92;39.84
54306;BME280;66145;45.188;5.712;2023-02-18T11:33:52;100461.81;;;19.03;39.29
54306;BME280;66145;45.188;5.712;2023-02-18T11:36:35;100429.25;;;18.91;39.32
54306;BME280;66145;45.188;5.712;2023-02-18T11:39:03;100436.06;;;18.98;39.40
54306;BME280;66145;45.188;5.712;2023-02-18T11:41:40;100451.59;;;19.13;39.53
54306;BME280;66145;45.188;5.712;2023-02-18T11:44:20;100442.84;;;19.06;39.38
54306;BME280;66145;45.188;5.712;2023-02-18T11:49:23;100414.44;;;18.92;39.56
54306;BME280;66145;45.188;5.712;2023-02-18T11:51:49;100441.19;;;19.10;39.70
54306;BME280;66145;45.188;5.712;2023-02-18T11:56:56;100430.25;;;19.05;39.83
54306;BME280;66145;45.188;5.712;2023-02-18T11:59:22;100396.09;;;18.87;39.69
54306;BME280;66145;45.188;5.712;2023-02-18T12:01:56;100409.22;;;18.95;39.63
54306;BME280;66145;45.188;5.712;2023-02-18T12:04:33;100406.22;;;18.97;39.78
54306;BME280;66145;45.188;5.712;2023-02-18T12:09:47;100417.94;;;19.03;39.85
54306;BME280;66145;45.188;5.712;2023-02-18T12:12:18;100421.78;;;19.02;39.77
54306;BME280;66145;45.188;5.712;2023-02-18T12:14:48;100420.16;;;19.00;39.84
54306;BME280;66145;45.188;5.712;2023-02-18T12:20:25;100365.25;;;18.71;39.92
54306;BME280;66145;45.188;5.712;2023-02-18T12:26:01;100397.00;;;18.77;40.64
54306;BME280;66145;45.188;5.712;2023-02-18T12:28:44;100384.75;;;18.69;40.35
54306;BME280;66145;45.188;5.712;2023-02-18T12:39:30;100374.72;;;18.89;39.74
54306;BME280;66145;45.188;5.712;2023-02-18T12:58:56;100347.03;;;18.85;40.47
54306;BME280;66145;45.188;5.712;2023-02-18T13:07:33;100334.91;;;18.97;39.95
54306;BME280;66145;45.188;5.712;2023-02-18T13:13:15;100310.59;;;18.85;40.12
54306;BME280;66145;45.188;5.712;2023-02-18T13:15:47;100311.09;;;18.92;40.13
54306;BME280;66145;45.188;5.712;2023-02-18T13:18:20;100278.97;;;18.68;40.15
54306;BME280;66145;45.188;5.712;2023-02-18T13:20:53;100307.06;;;18.84;40.40
54306;BME280;66145;45.188;5.712;2023-02-18T13:23:29;100277.28;;;18.73;40.62
54306;BME280;66145;45.188;5.712;2023-02-18T13:25:59;100301.28;;;18.86;40.29
54306;BME280;66145;45.188;5.712;2023-02-18T13:40:20;100247.53;;;18.61;40.45
54306;BME280;66145;45.188;5.712;2023-02-18T13:42:50;100287.53;;;18.91;40.34
54306;BME280;66145;45.188;5.712;2023-02-18T13:47:48;100265.75;;;18.76;40.51
54306;BME280;66145;45.188;5.712;2023-02-18T13:55:38;100257.13;;;18.88;40.65
54306;BME280;66145;45.188;5.712;2023-02-18T13:58:11;100234.53;;;18.72;40.38
54306;BME280;66145;45.188;5.712;2023-02-18T14:00:40;100264.44;;;18.97;40.37
54306;BME280;66145;45.188;5.712;2023-02-18T14:08:45;100236.00;;;18.88;40.71
54306;BME280;66145;45.188;5.712;2023-02-18T14:14:14;100225.09;;;18.83;40.60
54306;BME280;66145;45.188;5.712;2023-02-18T14:19:41;100235.44;;;18.91;40.21
54306;BME280;66145;45.188;5.712;2023-02-18T14:25:21;100206.44;;;18.85;40.72
54306;BME280;66145;45.188;5.712;2023-02-18T14:27:41;100177.56;;;18.68;40.55
54306;BME280;66145;45.188;5.712;2023-02-18T14:30:32;100186.03;;;18.72;40.44
54306;BME280;66145;45.188;5.712;2023-02-18T14:33:00;100196.63;;;18.79;40.45
54306;BME280;66145;45.188;5.712;2023-02-18T14:35:35;100199.63;;;18.82;40.70
54306;BME280;66145;45.188;5.712;2023-02-18T14:43:26;100200.59;;;18.92;40.42
54306;BME280;66145;45.188;5.712;2023-02-18T14:51:04;100168.41;;;18.78;40.74
54306;BME280;66145;45.188;5.712;2023-02-18T14:53:29;100174.44;;;18.80;40.63
54306;BME280;66145;45.188;5.712;2023-02-18T14:56:02;100149.63;;;18.66;40.61
54306;BME280;66145;45.188;5.712;2023-02-18T14:58:29;100192.16;;;18.88;40.50
54306;BME280;66145;45.188;5.712;2023-02-18T15:00:57;100103.13;;;18.37;40.50
54306;BME280;66145;45.188;5.712;2023-02-18T15:03:25;100153.13;;;18.72;40.60
54306;BME280;66145;45.188;5.712;2023-02-18T15:05:51;100170.22;;;18.88;40.50
54306;BME280;66145;45.188;5.712;2023-02-18T15:08:22;100145.75;;;18.73;40.37
54306;BME280;66145;45.188;5.712;2023-02-18T15:11:09;100163.84;;;18.93;40.40
54306;BME280;66145;45.188;5.712;2023-02-18T15:13:35;100177.88;;;18.91;40.25
54306;BME280;66145;45.188;5.712;2023-02-18T15:16:14;100176.50;;;18.89;40.43
54306;BME280;66145;45.188;5.712;2023-02-18T15:18:42;100171.09;;;18.83;40.52
54306;BME280;66145;45.188;5.712;2023-02-18T15:21:21;100165.09;;;18.81;40.40
54306;BME280;66145;45.188;5.712;2023-02-18T15:23:49;100165.91;;;18.82;40.66
54306;BME280;66145;45.188;5.712;2023-02-18T15:26:16;100164.00;;;18.82;40.71